sensor_id;sensor_type;location;lat;lon;timestamp;P1;durP1;ratioP1;P2;durP2;ratioP2
24206;SDS011;12351;52.284;9.160;2023-04-24T00:01:19;1.07;;;0.72;;
24206;SDS011;12351;52.284;9.160;2023-04-24T00:04:09;1.37;;;0.80;;
24206;SDS011;12351;52.284;9.160;2023-04-24T00:06:58;2.25;;;0.90;;
24206;SDS011;12351;52.284;9.160;2023-04-24T00:09:48;2.83;;;0.70;;
24206;SDS011;12351;52.284;9.160;2023-04-24T00:12:35;0.90;;;0.72;;
24206;SDS011;12351;52.284;9.160;2023-04-24T00:15:25;0.88;;;0.60;;
24206;SDS011;12351;52.284;9.160;2023-04-24T00:18:14;2.52;;;0.80;;
24206;SDS011;12351;52.284;9.160;2023-04-24T00:21:02;1.42;;;0.80;;
24206;SDS011;12351;52.284;9.160;2023-04-24T00:23:51;1.17;;;0.70;;
24206;SDS011;12351;52.284;9.160;2023-04-24T00:26:41;0.98;;;0.72;;
24206;SDS011;12351;52.284;9.160;2023-04-24T00:32:18;0.82;;;0.68;;
24206;SDS011;12351;52.284;9.160;2023-04-24T00:35:06;0.60;;;0.50;;
24206;SDS011;12351;52.284;9.160;2023-04-24T00:37:54;1.22;;;0.62;;
24206;SDS011;12351;52.284;9.160;2023-04-24T00:40:42;1.17;;;0.40;;
24206;SDS011;12351;52.284;9.160;2023-04-24T00:43:31;0.20;;;0.20;;
24206;SDS011;12351;52.284;9.160;2023-04-24T00:46:19;0.30;;;0.30;;
24206;SDS011;12351;52.284;9.160;2023-04-24T00:49:06;0.42;;;0.20;;
24206;SDS011;12351;52.284;9.160;2023-04-24T00:51:56;0.93;;;0.30;;
24206;SDS011;12351;52.284;9.160;2023-04-24T00:54:45;0.30;;;0.30;;
24206;SDS011;12351;52.284;9.160;2023-04-24T00:57:33;0.33;;;0.20;;
24206;SDS011;12351;52.284;9.160;2023-04-24T01:00:22;0.40;;;0.30;;
24206;SDS011;12351;52.284;9.160;2023-04-24T01:03:09;0.62;;;0.30;;
24206;SDS011;12351;52.284;9.160;2023-04-24T01:06:00;0.20;;;0.20;;
24206;SDS011;12351;52.284;9.160;2023-04-24T01:08:52;1.05;;;0.20;;
24206;SDS011;12351;52.284;9.160;2023-04-24T01:11:40;0.50;;;0.30;;
24206;SDS011;12351;52.284;9.160;2023-04-24T01:14:28;0.30;;;0.30;;
24206;SDS011;12351;52.284;9.160;2023-04-24T01:17:18;0.30;;;0.30;;
24206;SDS011;12351;52.284;9.160;2023-04-24T01:20:07;0.30;;;0.30;;
24206;SDS011;12351;52.284;9.160;2023-04-24T01:22:55;0.30;;;0.30;;
24206;SDS011;12351;52.284;9.160;2023-04-24T01:25:45;2.17;;;0.47;;
24206;SDS011;12351;52.284;9.160;2023-04-24T01:28:34;0.20;;;0.20;;
24206;SDS011;12351;52.284;9.160;2023-04-24T01:31:22;0.20;;;0.20;;
24206;SDS011;12351;52.284;9.160;2023-04-24T01:34:11;0.42;;;0.40;;
24206;SDS011;12351;52.284;9.160;2023-04-24T01:37:02;1.30;;;0.42;;
24206;SDS011;12351;52.284;9.160;2023-04-24T01:39:51;1.05;;;0.50;;
24206;SDS011;12351;52.284;9.160;2023-04-24T01:42:38;0.82;;;0.60;;
24206;SDS011;12351;52.284;9.160;2023-04-24T01:45:29;1.87;;;0.60;;
24206;SDS011;12351;52.284;9.160;2023-04-24T01:48:17;0.50;;;0.50;;
24206;SDS011;12351;52.284;9.160;2023-04-24T01:51:05;0.80;;;0.60;;
24206;SDS011;12351;52.284;9.160;2023-04-24T01:53:51;0.42;;;0.40;;
24206;SDS011;12351;52.284;9.160;2023-04-24T01:56:43;0.50;;;0.50;;
24206;SDS011;12351;52.284;9.160;2023-04-24T01:59:32;0.60;;;0.50;;
24206;SDS011;12351;52.284;9.160;2023-04-24T02:02:21;0.55;;;0.53;;
24206;SDS011;12351;52.284;9.160;2023-04-24T02:05:12;1.32;;;0.68;;
24206;SDS011;12351;52.284;9.160;2023-04-24T02:08:00;0.45;;;0.45;;
24206;SDS011;12351;52.284;9.160;2023-04-24T02:10:48;1.35;;;0.60;;
24206;SDS011;12351;52.284;9.160;2023-04-24T02:13:37;1.00;;;0.55;;
24206;SDS011;12351;52.284;9.160;2023-04-24T02:16:26;0.50;;;0.30;;
24206;SDS011;12351;52.284;9.160;2023-04-24T02:19:17;0.98;;;0.55;;
24206;SDS011;12351;52.284;9.160;2023-04-24T02:22:05;0.85;;;0.40;;
24206;SDS011;12351;52.284;9.160;2023-04-24T02:24:52;0.78;;;0.42;;
24206;SDS011;12351;52.284;9.160;2023-04-24T02:27:39;0.23;;;0.23;;
24206;SDS011;12351;52.284;9.160;2023-04-24T02:30:26;3.00;;;0.50;;
24206;SDS011;12351;52.284;9.160;2023-04-24T02:33:13;1.22;;;0.35;;
24206;SDS011;12351;52.284;9.160;2023-04-24T02:36:02;1.10;;;0.40;;
24206;SDS011;12351;52.284;9.160;2023-04-24T02:38:53;0.40;;;0.30;;
24206;SDS011;12351;52.284;9.160;2023-04-24T02:41:42;0.90;;;0.47;;
24206;SDS011;12351;52.284;9.160;2023-04-24T02:44:32;1.42;;;0.70;;
24206;SDS011;12351;52.284;9.160;2023-04-24T02:47:21;0.57;;;0.47;;
24206;SDS011;12351;52.284;9.160;2023-04-24T02:50:11;0.53;;;0.50;;
24206;SDS011;12351;52.284;9.160;2023-04-24T02:52:58;0.50;;;0.50;;
24206;SDS011;12351;52.284;9.160;2023-04-24T02:55:48;0.85;;;0.50;;
24206;SDS011;12351;52.284;9.160;2023-04-24T02:58:40;0.68;;;0.40;;
24206;SDS011;12351;52.284;9.160;2023-04-24T03:01:29;0.95;;;0.60;;
24206;SDS011;12351;52.284;9.160;2023-04-24T03:04:17;0.70;;;0.68;;
24206;SDS011;12351;52.284;9.160;2023-04-24T03:07:05;1.55;;;0.72;;
24206;SDS011;12351;52.284;9.160;2023-04-24T03:09:53;1.98;;;0.80;;
24206;SDS011;12351;52.284;9.160;2023-04-24T03:12:41;1.07;;;0.80;;
24206;SDS011;12351;52.284;9.160;2023-04-24T03:15:28;1.10;;;1.00;;
24206;SDS011;12351;52.284;9.160;2023-04-24T03:18:17;1.22;;;0.82;;
24206;SDS011;12351;52.284;9.160;2023-04-24T03:21:06;1.15;;;0.90;;
24206;SDS011;12351;52.284;9.160;2023-04-24T03:23:54;1.80;;;0.72;;
24206;SDS011;12351;52.284;9.160;2023-04-24T03:26:46;1.17;;;0.70;;
24206;SDS011;12351;52.284;9.160;2023-04-24T03:29:34;1.12;;;0.68;;
24206;SDS011;12351;52.284;9.160;2023-04-24T03:32:22;0.68;;;0.68;;
24206;SDS011;12351;52.284;9.160;2023-04-24T03:35:09;0.60;;;0.60;;
24206;SDS011;12351;52.284;9.160;2023-04-24T03:37:57;0.80;;;0.80;;
24206;SDS011;12351;52.284;9.160;2023-04-24T03:40:45;1.37;;;0.70;;
24206;SDS011;12351;52.284;9.160;2023-04-24T03:43:33;1.30;;;0.60;;
24206;SDS011;12351;52.284;9.160;2023-04-24T03:46:21;0.95;;;0.50;;
24206;SDS011;12351;52.284;9.160;2023-04-24T03:49:10;0.90;;;0.70;;
24206;SDS011;12351;52.284;9.160;2023-04-24T03:51:58;0.93;;;0.40;;
24206;SDS011;12351;52.284;9.160;2023-04-24T03:54:47;1.42;;;0.37;;
24206;SDS011;12351;52.284;9.160;2023-04-24T03:57:34;1.22;;;0.42;;
24206;SDS011;12351;52.284;9.160;2023-04-24T04:00:21;0.50;;;0.47;;
24206;SDS011;12351;52.284;9.160;2023-04-24T04:03:08;1.12;;;0.40;;
24206;SDS011;12351;52.284;9.160;2023-04-24T04:05:59;2.70;;;0.40;;
24206;SDS011;12351;52.284;9.160;2023-04-24T04:08:47;3.25;;;0.60;;
24206;SDS011;12351;52.284;9.160;2023-04-24T04:11:35;1.00;;;0.72;;
24206;SDS011;12351;52.284;9.160;2023-04-24T04:14:25;4.37;;;0.60;;
24206;SDS011;12351;52.284;9.160;2023-04-24T04:17:14;1.02;;;0.70;;
24206;SDS011;12351;52.284;9.160;2023-04-24T04:20:04;1.27;;;0.68;;
24206;SDS011;12351;52.284;9.160;2023-04-24T04:22:54;1.35;;;0.60;;
24206;SDS011;12351;52.284;9.160;2023-04-24T04:25:42;1.20;;;0.70;;
24206;SDS011;12351;52.284;9.160;2023-04-24T04:28:32;0.78;;;0.57;;
24206;SDS011;12351;52.284;9.160;2023-04-24T04:31:20;0.78;;;0.70;;
24206;SDS011;12351;52.284;9.160;2023-04-24T04:34:09;0.90;;;0.80;;
24206;SDS011;12351;52.284;9.160;2023-04-24T04:36:58;0.60;;;0.60;;
24206;SDS011;12351;52.284;9.160;2023-04-24T04:39:46;0.75;;;0.70;;
24206;SDS011;12351;52.284;9.160;2023-04-24T04:42:34;1.92;;;0.70;;
24206;SDS011;12351;52.284;9.160;2023-04-24T04:45:23;1.62;;;0.70;;
24206;SDS011;12351;52.284;9.160;2023-04-24T04:48:12;1.00;;;0.60;;
24206;SDS011;12351;52.284;9.160;2023-04-24T04:51:02;0.90;;;0.90;;
24206;SDS011;12351;52.284;9.160;2023-04-24T04:53:52;1.75;;;0.80;;
24206;SDS011;12351;52.284;9.160;2023-04-24T04:56:40;1.00;;;0.70;;
24206;SDS011;12351;52.284;9.160;2023-04-24T04:59:31;1.67;;;0.80;;
24206;SDS011;12351;52.284;9.160;2023-04-24T05:02:18;1.47;;;0.80;;
24206;SDS011;12351;52.284;9.160;2023-04-24T05:05:07;0.85;;;0.78;;
24206;SDS011;12351;52.284;9.160;2023-04-24T05:07:56;1.42;;;0.82;;
24206;SDS011;12351;52.284;9.160;2023-04-24T05:10:45;1.75;;;1.00;;
24206;SDS011;12351;52.284;9.160;2023-04-24T05:13:37;1.00;;;0.90;;
24206;SDS011;12351;52.284;9.160;2023-04-24T05:16:24;2.08;;;0.98;;
24206;SDS011;12351;52.284;9.160;2023-04-24T05:19:12;2.33;;;1.10;;
24206;SDS011;12351;52.284;9.160;2023-04-24T05:21:59;1.20;;;1.10;;
24206;SDS011;12351;52.284;9.160;2023-04-24T05:24:49;1.35;;;1.00;;
24206;SDS011;12351;52.284;9.160;2023-04-24T05:27:39;1.75;;;1.02;;
24206;SDS011;12351;52.284;9.160;2023-04-24T05:30:26;1.50;;;1.20;;
24206;SDS011;12351;52.284;9.160;2023-04-24T05:33:16;1.98;;;1.40;;
24206;SDS011;12351;52.284;9.160;2023-04-24T05:36:07;1.40;;;1.10;;
24206;SDS011;12351;52.284;9.160;2023-04-24T05:38:55;1.30;;;1.20;;
24206;SDS011;12351;52.284;9.160;2023-04-24T05:41:44;1.27;;;1.10;;
24206;SDS011;12351;52.284;9.160;2023-04-24T05:44:33;1.40;;;1.30;;
24206;SDS011;12351;52.284;9.160;2023-04-24T05:47:22;2.00;;;1.82;;
24206;SDS011;12351;52.284;9.160;2023-04-24T05:50:11;2.37;;;1.92;;
24206;SDS011;12351;52.284;9.160;2023-04-24T05:53:01;2.87;;;2.30;;
24206;SDS011;12351;52.284;9.160;2023-04-24T05:55:48;3.95;;;2.50;;
24206;SDS011;12351;52.284;9.160;2023-04-24T05:58:37;2.42;;;2.22;;
24206;SDS011;12351;52.284;9.160;2023-04-24T06:01:28;3.30;;;2.35;;
24206;SDS011;12351;52.284;9.160;2023-04-24T06:04:16;3.15;;;2.50;;
24206;SDS011;12351;52.284;9.160;2023-04-24T06:07:04;4.55;;;3.95;;
24206;SDS011;12351;52.284;9.160;2023-04-24T06:09:51;6.28;;;5.20;;
24206;SDS011;12351;52.284;9.160;2023-04-24T06:12:39;5.20;;;4.40;;
24206;SDS011;12351;52.284;9.160;2023-04-24T06:18:16;5.25;;;4.65;;
24206;SDS011;12351;52.284;9.160;2023-04-24T06:21:06;7.42;;;4.60;;
24206;SDS011;12351;52.284;9.160;2023-04-24T06:23:54;6.83;;;4.75;;
24206;SDS011;12351;52.284;9.160;2023-04-24T06:26:42;6.33;;;5.08;;
24206;SDS011;12351;52.284;9.160;2023-04-24T06:29:29;7.33;;;5.20;;
24206;SDS011;12351;52.284;9.160;2023-04-24T06:32:15;5.92;;;4.97;;
24206;SDS011;12351;52.284;9.160;2023-04-24T06:35:05;6.50;;;5.08;;
24206;SDS011;12351;52.284;9.160;2023-04-24T06:37:54;6.22;;;5.40;;
24206;SDS011;12351;52.284;9.160;2023-04-24T06:40:41;5.70;;;5.10;;
24206;SDS011;12351;52.284;9.160;2023-04-24T06:43:29;9.83;;;5.53;;
24206;SDS011;12351;52.284;9.160;2023-04-24T06:46:19;5.80;;;4.92;;
24206;SDS011;12351;52.284;9.160;2023-04-24T06:49:10;7.80;;;6.22;;
24206;SDS011;12351;52.284;9.160;2023-04-24T06:51:57;7.47;;;5.78;;
24206;SDS011;12351;52.284;9.160;2023-04-24T06:54:48;7.95;;;6.35;;
24206;SDS011;12351;52.284;9.160;2023-04-24T06:57:35;7.75;;;6.55;;
24206;SDS011;12351;52.284;9.160;2023-04-24T07:00:22;8.03;;;6.37;;
24206;SDS011;12351;52.284;9.160;2023-04-24T07:03:09;9.43;;;6.58;;
24206;SDS011;12351;52.284;9.160;2023-04-24T07:05:56;7.55;;;6.17;;
24206;SDS011;12351;52.284;9.160;2023-04-24T07:08:44;7.30;;;6.50;;
24206;SDS011;12351;52.284;9.160;2023-04-24T07:11:32;7.60;;;6.35;;
24206;SDS011;12351;52.284;9.160;2023-04-24T07:14:24;9.20;;;7.03;;
24206;SDS011;12351;52.284;9.160;2023-04-24T07:17:11;8.33;;;7.33;;
24206;SDS011;12351;52.284;9.160;2023-04-24T07:19:59;10.55;;;7.47;;
24206;SDS011;12351;52.284;9.160;2023-04-24T07:22:48;9.00;;;7.10;;
24206;SDS011;12351;52.284;9.160;2023-04-24T07:25:37;9.00;;;7.42;;
24206;SDS011;12351;52.284;9.160;2023-04-24T07:28:25;9.55;;;7.08;;
24206;SDS011;12351;52.284;9.160;2023-04-24T07:31:14;9.18;;;7.65;;
24206;SDS011;12351;52.284;9.160;2023-04-24T07:34:02;11.00;;;7.75;;
24206;SDS011;12351;52.284;9.160;2023-04-24T07:36:52;10.50;;;7.70;;
24206;SDS011;12351;52.284;9.160;2023-04-24T07:39:40;9.93;;;8.33;;
24206;SDS011;12351;52.284;9.160;2023-04-24T07:42:28;10.58;;;8.08;;
24206;SDS011;12351;52.284;9.160;2023-04-24T07:45:18;8.88;;;7.55;;
24206;SDS011;12351;52.284;9.160;2023-04-24T07:48:08;10.48;;;7.97;;
24206;SDS011;12351;52.284;9.160;2023-04-24T07:50:59;10.63;;;7.90;;
24206;SDS011;12351;52.284;9.160;2023-04-24T07:53:48;9.58;;;8.25;;
24206;SDS011;12351;52.284;9.160;2023-04-24T07:56:37;9.78;;;7.78;;
24206;SDS011;12351;52.284;9.160;2023-04-24T07:59:26;11.33;;;8.18;;
24206;SDS011;12351;52.284;9.160;2023-04-24T08:02:14;10.05;;;8.23;;
24206;SDS011;12351;52.284;9.160;2023-04-24T08:05:07;10.88;;;8.28;;
24206;SDS011;12351;52.284;9.160;2023-04-24T08:07:56;9.43;;;7.35;;
24206;SDS011;12351;52.284;9.160;2023-04-24T08:10:44;9.65;;;7.45;;
24206;SDS011;12351;52.284;9.160;2023-04-24T08:13:32;11.65;;;7.58;;
24206;SDS011;12351;52.284;9.160;2023-04-24T08:16:22;9.20;;;7.28;;
24206;SDS011;12351;52.284;9.160;2023-04-24T08:19:11;9.28;;;6.80;;
24206;SDS011;12351;52.284;9.160;2023-04-24T08:21:59;8.58;;;7.15;;
24206;SDS011;12351;52.284;9.160;2023-04-24T08:24:48;8.33;;;7.08;;
24206;SDS011;12351;52.284;9.160;2023-04-24T08:27:37;9.60;;;7.35;;
24206;SDS011;12351;52.284;9.160;2023-04-24T08:30:24;8.03;;;6.10;;
24206;SDS011;12351;52.284;9.160;2023-04-24T08:33:13;6.72;;;5.80;;
24206;SDS011;12351;52.284;9.160;2023-04-24T08:36:02;7.97;;;5.60;;
24206;SDS011;12351;52.284;9.160;2023-04-24T08:38:52;9.40;;;5.40;;
24206;SDS011;12351;52.284;9.160;2023-04-24T08:41:41;8.38;;;5.30;;
24206;SDS011;12351;52.284;9.160;2023-04-24T08:44:32;6.60;;;5.20;;
24206;SDS011;12351;52.284;9.160;2023-04-24T08:47:20;5.28;;;4.78;;
24206;SDS011;12351;52.284;9.160;2023-04-24T08:50:11;6.33;;;5.22;;
24206;SDS011;12351;52.284;9.160;2023-04-24T08:53:01;5.95;;;5.33;;
24206;SDS011;12351;52.284;9.160;2023-04-24T08:55:51;7.12;;;5.25;;
24206;SDS011;12351;52.284;9.160;2023-04-24T08:58:40;6.53;;;5.20;;
24206;SDS011;12351;52.284;9.160;2023-04-24T09:01:28;6.50;;;5.65;;
24206;SDS011;12351;52.284;9.160;2023-04-24T09:04:18;6.80;;;5.15;;
24206;SDS011;12351;52.284;9.160;2023-04-24T09:07:09;6.87;;;5.00;;
24206;SDS011;12351;52.284;9.160;2023-04-24T09:09:57;6.80;;;5.08;;
24206;SDS011;12351;52.284;9.160;2023-04-24T09:12:48;8.20;;;4.65;;
24206;SDS011;12351;52.284;9.160;2023-04-24T09:15:38;5.78;;;4.45;;
24206;SDS011;12351;52.284;9.160;2023-04-24T09:18:27;5.75;;;4.37;;
24206;SDS011;12351;52.284;9.160;2023-04-24T09:21:18;5.15;;;4.45;;
24206;SDS011;12351;52.284;9.160;2023-04-24T09:24:08;4.95;;;4.08;;
24206;SDS011;12351;52.284;9.160;2023-04-24T09:26:59;6.80;;;4.47;;
24206;SDS011;12351;52.284;9.160;2023-04-24T09:29:57;3.95;;;3.58;;
24206;SDS011;12351;52.284;9.160;2023-04-24T09:32:42;3.95;;;3.50;;
24206;SDS011;12351;52.284;9.160;2023-04-24T09:35:29;3.85;;;3.40;;
24206;SDS011;12351;52.284;9.160;2023-04-24T09:38:19;3.90;;;3.00;;
24206;SDS011;12351;52.284;9.160;2023-04-24T09:41:10;3.20;;;2.90;;
24206;SDS011;12351;52.284;9.160;2023-04-24T09:44:11;2.83;;;2.50;;
24206;SDS011;12351;52.284;9.160;2023-04-24T09:46:51;4.85;;;2.80;;
24206;SDS011;12351;52.284;9.160;2023-04-24T09:49:40;3.52;;;2.75;;
24206;SDS011;12351;52.284;9.160;2023-04-24T09:52:29;3.35;;;2.45;;
24206;SDS011;12351;52.284;9.160;2023-04-24T09:55:19;2.83;;;2.40;;
24206;SDS011;12351;52.284;9.160;2023-04-24T09:58:09;3.52;;;2.70;;
24206;SDS011;12351;52.284;9.160;2023-04-24T10:00:59;3.30;;;2.17;;
24206;SDS011;12351;52.284;9.160;2023-04-24T10:03:46;4.17;;;2.50;;
24206;SDS011;12351;52.284;9.160;2023-04-24T10:06:35;3.35;;;2.17;;
24206;SDS011;12351;52.284;9.160;2023-04-24T10:09:24;5.30;;;2.50;;
24206;SDS011;12351;52.284;9.160;2023-04-24T10:12:12;4.08;;;2.20;;
24206;SDS011;12351;52.284;9.160;2023-04-24T10:15:02;4.00;;;2.10;;
24206;SDS011;12351;52.284;9.160;2023-04-24T10:17:50;2.30;;;2.10;;
24206;SDS011;12351;52.284;9.160;2023-04-24T10:20:38;2.20;;;2.00;;
24206;SDS011;12351;52.284;9.160;2023-04-24T10:23:28;2.30;;;2.10;;
24206;SDS011;12351;52.284;9.160;2023-04-24T10:26:19;2.27;;;2.08;;
24206;SDS011;12351;52.284;9.160;2023-04-24T10:29:08;2.10;;;1.90;;
24206;SDS011;12351;52.284;9.160;2023-04-24T10:32:01;2.47;;;2.00;;
24206;SDS011;12351;52.284;9.160;2023-04-24T10:34:50;3.17;;;1.82;;
24206;SDS011;12351;52.284;9.160;2023-04-24T10:37:40;2.27;;;2.02;;
24206;SDS011;12351;52.284;9.160;2023-04-24T10:40:30;2.92;;;1.77;;
24206;SDS011;12351;52.284;9.160;2023-04-24T10:43:18;2.05;;;1.87;;
24206;SDS011;12351;52.284;9.160;2023-04-24T10:46:07;1.95;;;1.67;;
24206;SDS011;12351;52.284;9.160;2023-04-24T10:48:56;1.70;;;1.60;;
24206;SDS011;12351;52.284;9.160;2023-04-24T10:54:36;3.10;;;1.77;;
24206;SDS011;12351;52.284;9.160;2023-04-24T10:57:26;1.67;;;1.57;;
24206;SDS011;12351;52.284;9.160;2023-04-24T11:00:18;1.95;;;1.75;;
24206;SDS011;12351;52.284;9.160;2023-04-24T11:03:09;1.85;;;1.60;;
24206;SDS011;12351;52.284;9.160;2023-04-24T11:05:58;1.77;;;1.47;;
24206;SDS011;12351;52.284;9.160;2023-04-24T11:08:38;1.97;;;1.27;;
24206;SDS011;12351;52.284;9.160;2023-04-24T11:11:28;1.50;;;1.40;;
24206;SDS011;12351;52.284;9.160;2023-04-24T11:14:16;1.50;;;1.40;;
24206;SDS011;12351;52.284;9.160;2023-04-24T11:17:05;4.97;;;1.45;;
24206;SDS011;12351;52.284;9.160;2023-04-24T11:19:52;2.17;;;1.30;;
24206;SDS011;12351;52.284;9.160;2023-04-24T11:22:46;1.50;;;1.40;;
24206;SDS011;12351;52.284;9.160;2023-04-24T11:25:35;4.10;;;1.22;;
24206;SDS011;12351;52.284;9.160;2023-04-24T11:28:23;1.20;;;1.10;;
24206;SDS011;12351;52.284;9.160;2023-04-24T11:36:52;1.25;;;0.80;;
24206;SDS011;12351;52.284;9.160;2023-04-24T11:39:42;1.20;;;1.10;;
24206;SDS011;12351;52.284;9.160;2023-04-24T11:42:33;0.85;;;0.80;;
24206;SDS011;12351;52.284;9.160;2023-04-24T11:45:24;0.80;;;0.70;;
24206;SDS011;12351;52.284;9.160;2023-04-24T11:48:18;1.00;;;0.70;;
24206;SDS011;12351;52.284;9.160;2023-04-24T11:51:03;1.42;;;1.32;;
24206;SDS011;12351;52.284;9.160;2023-04-24T11:53:51;1.60;;;1.50;;
24206;SDS011;12351;52.284;9.160;2023-04-24T11:56:44;3.02;;;1.72;;
24206;SDS011;12351;52.284;9.160;2023-04-24T12:02:24;3.40;;;1.62;;
24206;SDS011;12351;52.284;9.160;2023-04-24T12:08:03;1.90;;;1.80;;
24206;SDS011;12351;52.284;9.160;2023-04-24T12:10:53;2.05;;;1.85;;
24206;SDS011;12351;52.284;9.160;2023-04-24T12:13:42;1.82;;;1.72;;
24206;SDS011;12351;52.284;9.160;2023-04-24T12:16:30;2.50;;;2.30;;
24206;SDS011;12351;52.284;9.160;2023-04-24T12:19:22;2.77;;;2.27;;
24206;SDS011;12351;52.284;9.160;2023-04-24T12:22:10;2.70;;;2.25;;
24206;SDS011;12351;52.284;9.160;2023-04-24T12:24:59;2.52;;;2.33;;
24206;SDS011;12351;52.284;9.160;2023-04-24T12:27:52;2.45;;;2.25;;
24206;SDS011;12351;52.284;9.160;2023-04-24T12:33:32;3.77;;;2.60;;
24206;SDS011;12351;52.284;9.160;2023-04-24T12:36:22;2.60;;;2.40;;
24206;SDS011;12351;52.284;9.160;2023-04-24T12:42:02;2.40;;;2.20;;
24206;SDS011;12351;52.284;9.160;2023-04-24T12:44:55;2.92;;;2.30;;
24206;SDS011;12351;52.284;9.160;2023-04-24T12:47:41;2.33;;;2.12;;
24206;SDS011;12351;52.284;9.160;2023-04-24T12:50:31;2.30;;;1.82;;
24206;SDS011;12351;52.284;9.160;2023-04-24T12:53:21;1.40;;;1.30;;
24206;SDS011;12351;52.284;9.160;2023-04-24T12:56:10;1.32;;;1.22;;
24206;SDS011;12351;52.284;9.160;2023-04-24T12:58:58;1.00;;;0.90;;
24206;SDS011;12351;52.284;9.160;2023-04-24T13:01:48;1.10;;;1.00;;
24206;SDS011;12351;52.284;9.160;2023-04-24T13:04:37;0.85;;;0.82;;
24206;SDS011;12351;52.284;9.160;2023-04-24T13:07:27;0.80;;;0.80;;
24206;SDS011;12351;52.284;9.160;2023-04-24T13:10:15;0.60;;;0.60;;
24206;SDS011;12351;52.284;9.160;2023-04-24T13:13:04;0.85;;;0.68;;
24206;SDS011;12351;52.284;9.160;2023-04-24T13:15:53;1.47;;;0.98;;
24206;SDS011;12351;52.284;9.160;2023-04-24T13:18:40;1.37;;;0.82;;
24206;SDS011;12351;52.284;9.160;2023-04-24T13:21:29;1.30;;;0.80;;
24206;SDS011;12351;52.284;9.160;2023-04-24T13:24:19;0.85;;;0.80;;
24206;SDS011;12351;52.284;9.160;2023-04-24T13:27:08;1.42;;;1.10;;
24206;SDS011;12351;52.284;9.160;2023-04-24T13:29:56;1.95;;;1.00;;
24206;SDS011;12351;52.284;9.160;2023-04-24T13:32:44;2.35;;;1.37;;
24206;SDS011;12351;52.284;9.160;2023-04-24T13:35:32;1.50;;;1.10;;
24206;SDS011;12351;52.284;9.160;2023-04-24T13:38:19;2.55;;;1.45;;
24206;SDS011;12351;52.284;9.160;2023-04-24T13:41:08;2.02;;;1.82;;
24206;SDS011;12351;52.284;9.160;2023-04-24T13:43:57;2.52;;;1.85;;
24206;SDS011;12351;52.284;9.160;2023-04-24T13:46:48;3.58;;;1.92;;
24206;SDS011;12351;52.284;9.160;2023-04-24T13:49:37;2.40;;;2.20;;
24206;SDS011;12351;52.284;9.160;2023-04-24T13:52:25;3.95;;;2.60;;
24206;SDS011;12351;52.284;9.160;2023-04-24T13:55:17;4.17;;;2.60;;
24206;SDS011;12351;52.284;9.160;2023-04-24T13:58:03;5.08;;;2.60;;
24206;SDS011;12351;52.284;9.160;2023-04-24T14:00:53;3.17;;;2.42;;
24206;SDS011;12351;52.284;9.160;2023-04-24T14:03:41;3.60;;;2.42;;
24206;SDS011;12351;52.284;9.160;2023-04-24T14:06:29;2.67;;;2.47;;
24206;SDS011;12351;52.284;9.160;2023-04-24T14:09:17;6.17;;;2.90;;
24206;SDS011;12351;52.284;9.160;2023-04-24T14:12:07;6.10;;;2.72;;
24206;SDS011;12351;52.284;9.160;2023-04-24T14:14:55;5.75;;;2.65;;
24206;SDS011;12351;52.284;9.160;2023-04-24T14:17:44;4.45;;;2.72;;
24206;SDS011;12351;52.284;9.160;2023-04-24T14:20:32;5.58;;;2.50;;
24206;SDS011;12351;52.284;9.160;2023-04-24T14:23:20;6.83;;;2.52;;
24206;SDS011;12351;52.284;9.160;2023-04-24T14:26:09;5.87;;;2.55;;
24206;SDS011;12351;52.284;9.160;2023-04-24T14:28:57;5.33;;;2.70;;
24206;SDS011;12351;52.284;9.160;2023-04-24T14:31:47;4.90;;;2.75;;
24206;SDS011;12351;52.284;9.160;2023-04-24T14:34:33;7.20;;;2.87;;
24206;SDS011;12351;52.284;9.160;2023-04-24T14:37:21;6.97;;;2.83;;
24206;SDS011;12351;52.284;9.160;2023-04-24T14:40:10;5.17;;;3.35;;
24206;SDS011;12351;52.284;9.160;2023-04-24T14:43:00;6.53;;;3.12;;
24206;SDS011;12351;52.284;9.160;2023-04-24T14:45:48;9.38;;;3.58;;
24206;SDS011;12351;52.284;9.160;2023-04-24T14:48:39;5.78;;;3.22;;
24206;SDS011;12351;52.284;9.160;2023-04-24T14:51:28;6.65;;;3.75;;
24206;SDS011;12351;52.284;9.160;2023-04-24T14:54:15;10.32;;;4.97;;
24206;SDS011;12351;52.284;9.160;2023-04-24T14:57:07;7.25;;;4.00;;
24206;SDS011;12351;52.284;9.160;2023-04-24T14:59:56;5.95;;;3.60;;
24206;SDS011;12351;52.284;9.160;2023-04-24T15:02:49;7.33;;;4.15;;
24206;SDS011;12351;52.284;9.160;2023-04-24T15:05:40;6.12;;;4.17;;
24206;SDS011;12351;52.284;9.160;2023-04-24T15:08:27;11.60;;;4.70;;
24206;SDS011;12351;52.284;9.160;2023-04-24T15:11:19;8.60;;;4.40;;
24206;SDS011;12351;52.284;9.160;2023-04-24T15:14:11;8.18;;;3.62;;
24206;SDS011;12351;52.284;9.160;2023-04-24T15:16:59;8.38;;;4.78;;
24206;SDS011;12351;52.284;9.160;2023-04-24T15:19:46;7.67;;;4.50;;
24206;SDS011;12351;52.284;9.160;2023-04-24T15:22:34;14.80;;;7.28;;
24206;SDS011;12351;52.284;9.160;2023-04-24T15:25:23;19.57;;;8.63;;
24206;SDS011;12351;52.284;9.160;2023-04-24T15:28:13;12.10;;;6.70;;
24206;SDS011;12351;52.284;9.160;2023-04-24T15:31:03;12.58;;;5.12;;
24206;SDS011;12351;52.284;9.160;2023-04-24T15:33:53;11.03;;;5.05;;
24206;SDS011;12351;52.284;9.160;2023-04-24T15:36:44;12.35;;;4.75;;
24206;SDS011;12351;52.284;9.160;2023-04-24T15:39:34;7.75;;;4.08;;
24206;SDS011;12351;52.284;9.160;2023-04-24T15:42:21;8.95;;;3.90;;
24206;SDS011;12351;52.284;9.160;2023-04-24T15:45:08;9.58;;;4.45;;
24206;SDS011;12351;52.284;9.160;2023-04-24T15:47:57;8.28;;;4.42;;
24206;SDS011;12351;52.284;9.160;2023-04-24T15:50:44;9.35;;;3.83;;
24206;SDS011;12351;52.284;9.160;2023-04-24T15:53:31;10.35;;;4.45;;
24206;SDS011;12351;52.284;9.160;2023-04-24T15:56:18;7.60;;;4.10;;
24206;SDS011;12351;52.284;9.160;2023-04-24T15:59:05;6.90;;;3.50;;
24206;SDS011;12351;52.284;9.160;2023-04-24T16:01:52;7.87;;;3.02;;
24206;SDS011;12351;52.284;9.160;2023-04-24T16:04:40;5.90;;;2.70;;
24206;SDS011;12351;52.284;9.160;2023-04-24T16:07:27;6.45;;;2.25;;
24206;SDS011;12351;52.284;9.160;2023-04-24T16:10:14;5.85;;;2.50;;
24206;SDS011;12351;52.284;9.160;2023-04-24T16:13:01;5.08;;;2.20;;
24206;SDS011;12351;52.284;9.160;2023-04-24T16:15:49;5.83;;;2.35;;
24206;SDS011;12351;52.284;9.160;2023-04-24T16:18:37;4.85;;;2.40;;
24206;SDS011;12351;52.284;9.160;2023-04-24T16:21:24;7.05;;;2.87;;
24206;SDS011;12351;52.284;9.160;2023-04-24T16:24:11;6.72;;;2.77;;
24206;SDS011;12351;52.284;9.160;2023-04-24T16:26:58;9.45;;;3.22;;
24206;SDS011;12351;52.284;9.160;2023-04-24T16:29:46;7.67;;;3.00;;
24206;SDS011;12351;52.284;9.160;2023-04-24T16:32:33;7.40;;;3.52;;
24206;SDS011;12351;52.284;9.160;2023-04-24T16:35:19;6.47;;;3.37;;
24206;SDS011;12351;52.284;9.160;2023-04-24T16:38:06;9.70;;;4.00;;
24206;SDS011;12351;52.284;9.160;2023-04-24T16:40:54;12.47;;;4.22;;
24206;SDS011;12351;52.284;9.160;2023-04-24T16:43:40;6.80;;;3.70;;
24206;SDS011;12351;52.284;9.160;2023-04-24T16:46:27;6.62;;;4.10;;
24206;SDS011;12351;52.284;9.160;2023-04-24T16:49:14;7.70;;;3.77;;
24206;SDS011;12351;52.284;9.160;2023-04-24T16:52:02;6.60;;;3.60;;
24206;SDS011;12351;52.284;9.160;2023-04-24T16:54:49;6.12;;;3.47;;
24206;SDS011;12351;52.284;9.160;2023-04-24T16:57:36;5.12;;;2.90;;
24206;SDS011;12351;52.284;9.160;2023-04-24T17:00:23;5.45;;;2.77;;
24206;SDS011;12351;52.284;9.160;2023-04-24T17:03:10;6.50;;;2.62;;
24206;SDS011;12351;52.284;9.160;2023-04-24T17:05:58;5.45;;;2.50;;
24206;SDS011;12351;52.284;9.160;2023-04-24T17:08:45;3.27;;;2.30;;
24206;SDS011;12351;52.284;9.160;2023-04-24T17:11:32;4.85;;;2.50;;
24206;SDS011;12351;52.284;9.160;2023-04-24T17:14:19;3.77;;;2.50;;
24206;SDS011;12351;52.284;9.160;2023-04-24T17:17:07;3.83;;;2.30;;
24206;SDS011;12351;52.284;9.160;2023-04-24T17:19:55;4.90;;;2.80;;
24206;SDS011;12351;52.284;9.160;2023-04-24T17:22:42;6.10;;;2.65;;